sensor_id;sensor_type;location;lat;lon;timestamp;P1;durP1;ratioP1;P2;durP2;ratioP2
79128;SDS011;68529;43.286;23.360;2023-07-31T00:01:03;4.65;;;4.25;;
79128;SDS011;68529;43.286;23.360;2023-07-31T00:03:28;4.40;;;4.00;;
79128;SDS011;68529;43.286;23.360;2023-07-31T00:05:54;4.47;;;4.07;;
79128;SDS011;68529;43.286;23.360;2023-07-31T00:08:19;5.18;;;4.72;;
79128;SDS011;68529;43.286;23.360;2023-07-31T00:10:44;4.38;;;4.07;;
79128;SDS011;68529;43.286;23.360;2023-07-31T00:13:10;4.50;;;4.10;;
79128;SDS011;68529;43.286;23.360;2023-07-31T00:15:35;4.85;;;4.47;;
79128;SDS011;68529;43.286;23.360;2023-07-31T00:18:00;5.80;;;4.72;;
79128;SDS011;68529;43.286;23.360;2023-07-31T00:20:26;4.80;;;4.50;;
79128;SDS011;68529;43.286;23.360;2023-07-31T00:22:51;4.57;;;4.20;;
79128;SDS011;68529;43.286;23.360;2023-07-31T00:25:17;4.60;;;4.20;;
79128;SDS011;68529;43.286;23.360;2023-07-31T00:27:42;4.65;;;4.25;;
79128;SDS011;68529;43.286;23.360;2023-07-31T00:30:09;4.38;;;4.07;;
79128;SDS011;68529;43.286;23.360;2023-07-31T00:32:35;4.40;;;4.10;;
79128;SDS011;68529;43.286;23.360;2023-07-31T00:35:01;5.45;;;4.47;;
79128;SDS011;68529;43.286;23.360;2023-07-31T00:37:27;4.78;;;4.38;;
79128;SDS011;68529;43.286;23.360;2023-07-31T00:39:52;4.82;;;4.50;;
79128;SDS011;68529;43.286;23.360;2023-07-31T00:42:17;4.80;;;4.40;;
79128;SDS011;68529;43.286;23.360;2023-07-31T00:44:43;4.90;;;4.28;;
79128;SDS011;68529;43.286;23.360;2023-07-31T00:47:08;4.40;;;4.10;;
79128;SDS011;68529;43.286;23.360;2023-07-31T00:49:34;5.72;;;4.80;;
79128;SDS011;68529;43.286;23.360;2023-07-31T00:51:59;5.65;;;5.15;;
79128;SDS011;68529;43.286;23.360;2023-07-31T00:54:25;5.30;;;4.80;;
79128;SDS011;68529;43.286;23.360;2023-07-31T00:56:50;5.38;;;4.88;;
79128;SDS011;68529;43.286;23.360;2023-07-31T00:59:19;5.05;;;4.75;;
79128;SDS011;68529;43.286;23.360;2023-07-31T01:01:44;5.18;;;4.68;;
79128;SDS011;68529;43.286;23.360;2023-07-31T01:04:10;4.97;;;4.60;;
79128;SDS011;68529;43.286;23.360;2023-07-31T01:09:17;5.03;;;4.63;;
79128;SDS011;68529;43.286;23.360;2023-07-31T01:11:54;5.43;;;4.97;;
79128;SDS011;68529;43.286;23.360;2023-07-31T01:14:24;5.57;;;5.07;;
79128;SDS011;68529;43.286;23.360;2023-07-31T01:16:50;5.25;;;4.80;;
79128;SDS011;68529;43.286;23.360;2023-07-31T01:19:15;5.35;;;4.88;;
79128;SDS011;68529;43.286;23.360;2023-07-31T01:26:58;5.85;;;5.20;;
79128;SDS011;68529;43.286;23.360;2023-07-31T01:29:47;5.03;;;4.53;;
79128;SDS011;68529;43.286;23.360;2023-07-31T01:32:17;5.90;;;5.38;;
79128;SDS011;68529;43.286;23.360;2023-07-31T01:34:43;4.80;;;4.43;;
79128;SDS011;68529;43.286;23.360;2023-07-31T01:37:09;5.68;;;5.28;;
79128;SDS011;68529;43.286;23.360;2023-07-31T01:39:34;5.63;;;5.13;;
79128;SDS011;68529;43.286;23.360;2023-07-31T01:42:00;5.45;;;5.05;;
79128;SDS011;68529;43.286;23.360;2023-07-31T01:44:25;5.25;;;4.85;;
79128;SDS011;68529;43.286;23.360;2023-07-31T01:46:50;6.05;;;4.88;;
79128;SDS011;68529;43.286;23.360;2023-07-31T01:49:16;5.32;;;4.82;;
79128;SDS011;68529;43.286;23.360;2023-07-31T01:51:41;5.25;;;4.75;;
79128;SDS011;68529;43.286;23.360;2023-07-31T01:54:07;5.07;;;4.68;;
79128;SDS011;68529;43.286;23.360;2023-07-31T01:56:32;5.22;;;4.82;;
79128;SDS011;68529;43.286;23.360;2023-07-31T01:58:57;5.40;;;4.97;;
79128;SDS011;68529;43.286;23.360;2023-07-31T02:01:23;4.97;;;4.68;;
79128;SDS011;68529;43.286;23.360;2023-07-31T02:03:48;4.68;;;4.38;;
79128;SDS011;68529;43.286;23.360;2023-07-31T02:06:14;5.10;;;4.70;;
79128;SDS011;68529;43.286;23.360;2023-07-31T02:08:39;5.05;;;4.70;;
79128;SDS011;68529;43.286;23.360;2023-07-31T02:11:04;5.20;;;4.72;;
79128;SDS011;68529;43.286;23.360;2023-07-31T02:13:30;5.97;;;5.47;;
79128;SDS011;68529;43.286;23.360;2023-07-31T02:15:55;5.15;;;4.80;;
79128;SDS011;68529;43.286;23.360;2023-07-31T02:18:20;5.00;;;4.60;;
79128;SDS011;68529;43.286;23.360;2023-07-31T02:20:50;5.10;;;4.70;;
79128;SDS011;68529;43.286;23.360;2023-07-31T02:23:16;4.85;;;4.45;;
79128;SDS011;68529;43.286;23.360;2023-07-31T02:25:43;5.07;;;4.57;;
79128;SDS011;68529;43.286;23.360;2023-07-31T02:28:08;5.30;;;4.90;;
79128;SDS011;68529;43.286;23.360;2023-07-31T02:30:33;5.20;;;4.70;;
79128;SDS011;68529;43.286;23.360;2023-07-31T02:32:59;4.97;;;4.55;;
79128;SDS011;68529;43.286;23.360;2023-07-31T02:35:24;5.15;;;4.75;;
79128;SDS011;68529;43.286;23.360;2023-07-31T02:37:50;5.43;;;4.95;;
79128;SDS011;68529;43.286;23.360;2023-07-31T02:40:15;5.72;;;5.22;;
79128;SDS011;68529;43.286;23.360;2023-07-31T02:42:40;5.55;;;5.13;;
79128;SDS011;68529;43.286;23.360;2023-07-31T02:45:06;5.28;;;4.88;;
79128;SDS011;68529;43.286;23.360;2023-07-31T02:47:32;4.80;;;4.40;;
79128;SDS011;68529;43.286;23.360;2023-07-31T02:49:57;5.28;;;4.78;;
79128;SDS011;68529;43.286;23.360;2023-07-31T02:52:24;5.32;;;4.70;;
79128;SDS011;68529;43.286;23.360;2023-07-31T02:54:49;5.63;;;5.13;;
79128;SDS011;68529;43.286;23.360;2023-07-31T02:57:15;5.22;;;4.78;;
79128;SDS011;68529;43.286;23.360;2023-07-31T02:59:41;6.18;;;5.55;;
79128;SDS011;68529;43.286;23.360;2023-07-31T03:02:06;5.38;;;4.95;;
79128;SDS011;68529;43.286;23.360;2023-07-31T03:04:32;6.00;;;5.38;;
79128;SDS011;68529;43.286;23.360;2023-07-31T03:06:57;5.70;;;4.93;;
79128;SDS011;68529;43.286;23.360;2023-07-31T03:09:23;6.03;;;5.43;;
79128;SDS011;68529;43.286;23.360;2023-07-31T03:11:48;6.45;;;5.85;;
79128;SDS011;68529;43.286;23.360;2023-07-31T03:14:13;5.65;;;5.20;;
79128;SDS011;68529;43.286;23.360;2023-07-31T03:16:39;5.97;;;5.47;;
79128;SDS011;68529;43.286;23.360;2023-07-31T03:19:04;5.60;;;5.20;;
79128;SDS011;68529;43.286;23.360;2023-07-31T03:21:29;6.13;;;5.63;;
79128;SDS011;68529;43.286;23.360;2023-07-31T03:23:55;5.78;;;5.35;;
79128;SDS011;68529;43.286;23.360;2023-07-31T03:26:20;6.25;;;5.75;;
79128;SDS011;68529;43.286;23.360;2023-07-31T03:28:45;6.03;;;5.63;;
79128;SDS011;68529;43.286;23.360;2023-07-31T03:31:11;5.95;;;5.55;;
79128;SDS011;68529;43.286;23.360;2023-07-31T03:33:36;6.00;;;5.50;;
79128;SDS011;68529;43.286;23.360;2023-07-31T03:36:02;5.95;;;5.45;;
79128;SDS011;68529;43.286;23.360;2023-07-31T03:38:27;5.90;;;5.50;;
79128;SDS011;68529;43.286;23.360;2023-07-31T03:40:53;5.97;;;5.47;;
79128;SDS011;68529;43.286;23.360;2023-07-31T03:43:18;6.03;;;5.50;;
79128;SDS011;68529;43.286;23.360;2023-07-31T03:45:43;6.70;;;6.00;;
79128;SDS011;68529;43.286;23.360;2023-07-31T03:48:09;6.47;;;5.95;;
79128;SDS011;68529;43.286;23.360;2023-07-31T03:50:34;6.32;;;5.80;;
79128;SDS011;68529;43.286;23.360;2023-07-31T03:53:00;6.25;;;5.75;;
79128;SDS011;68529;43.286;23.360;2023-07-31T03:55:25;6.18;;;5.57;;
79128;SDS011;68529;43.286;23.360;2023-07-31T03:57:51;6.20;;;5.65;;
79128;SDS011;68529;43.286;23.360;2023-07-31T04:00:16;6.38;;;5.82;;
79128;SDS011;68529;43.286;23.360;2023-07-31T04:02:41;5.93;;;5.45;;
79128;SDS011;68529;43.286;23.360;2023-07-31T04:05:07;6.05;;;5.55;;
79128;SDS011;68529;43.286;23.360;2023-07-31T04:07:32;6.15;;;5.57;;
79128;SDS011;68529;43.286;23.360;2023-07-31T04:09:58;5.82;;;5.43;;
79128;SDS011;68529;43.286;23.360;2023-07-31T04:12:25;6.38;;;5.78;;
79128;SDS011;68529;43.286;23.360;2023-07-31T04:14:50;6.53;;;6.03;;
79128;SDS011;68529;43.286;23.360;2023-07-31T04:17:17;6.32;;;5.78;;
79128;SDS011;68529;43.286;23.360;2023-07-31T04:19:42;6.38;;;5.88;;
79128;SDS011;68529;43.286;23.360;2023-07-31T04:22:08;7.05;;;5.88;;
79128;SDS011;68529;43.286;23.360;2023-07-31T04:24:33;6.68;;;6.07;;
79128;SDS011;68529;43.286;23.360;2023-07-31T04:26:58;6.50;;;6.00;;
79128;SDS011;68529;43.286;23.360;2023-07-31T04:29:24;7.20;;;5.70;;
79128;SDS011;68529;43.286;23.360;2023-07-31T04:31:49;6.72;;;6.22;;
79128;SDS011;68529;43.286;23.360;2023-07-31T04:34:14;7.18;;;6.50;;
79128;SDS011;68529;43.286;23.360;2023-07-31T04:36:40;7.43;;;6.72;;
79128;SDS011;68529;43.286;23.360;2023-07-31T04:39:05;7.22;;;6.65;;
79128;SDS011;68529;43.286;23.360;2023-07-31T04:41:31;6.80;;;6.30;;
79128;SDS011;68529;43.286;23.360;2023-07-31T04:43:56;6.90;;;6.40;;
79128;SDS011;68529;43.286;23.360;2023-07-31T04:46:22;7.55;;;6.85;;
79128;SDS011;68529;43.286;23.360;2023-07-31T04:48:47;6.90;;;6.40;;
79128;SDS011;68529;43.286;23.360;2023-07-31T04:51:12;7.43;;;6.78;;
79128;SDS011;68529;43.286;23.360;2023-07-31T04:53:38;8.10;;;6.20;;
79128;SDS011;68529;43.286;23.360;2023-07-31T04:56:04;7.40;;;6.80;;
79128;SDS011;68529;43.286;23.360;2023-07-31T04:58:29;8.10;;;7.18;;
79128;SDS011;68529;43.286;23.360;2023-07-31T05:00:55;7.68;;;7.13;;
79128;SDS011;68529;43.286;23.360;2023-07-31T05:03:20;8.48;;;7.68;;
79128;SDS011;68529;43.286;23.360;2023-07-31T05:05:45;9.02;;;8.13;;
79128;SDS011;68529;43.286;23.360;2023-07-31T05:08:11;7.28;;;6.50;;
79128;SDS011;68529;43.286;23.360;2023-07-31T05:10:37;8.48;;;7.60;;
79128;SDS011;68529;43.286;23.360;2023-07-31T05:13:02;7.35;;;6.72;;
79128;SDS011;68529;43.286;23.360;2023-07-31T05:15:28;6.65;;;6.05;;
79128;SDS011;68529;43.286;23.360;2023-07-31T05:17:53;6.47;;;5.97;;
79128;SDS011;68529;43.286;23.360;2023-07-31T05:20:19;5.78;;;5.38;;
79128;SDS011;68529;43.286;23.360;2023-07-31T05:22:44;5.53;;;5.10;;
79128;SDS011;68529;43.286;23.360;2023-07-31T05:25:09;5.03;;;4.63;;
79128;SDS011;68529;43.286;23.360;2023-07-31T05:27:35;5.38;;;4.97;;
79128;SDS011;68529;43.286;23.360;2023-07-31T05:30:00;5.30;;;4.90;;
79128;SDS011;68529;43.286;23.360;2023-07-31T05:32:26;4.80;;;4.35;;
79128;SDS011;68529;43.286;23.360;2023-07-31T05:34:51;4.68;;;4.30;;
79128;SDS011;68529;43.286;23.360;2023-07-31T05:37:18;5.18;;;4.75;;
79128;SDS011;68529;43.286;23.360;2023-07-31T05:39:43;5.05;;;4.55;;
79128;SDS011;68529;43.286;23.360;2023-07-31T05:42:08;5.55;;;4.05;;
79128;SDS011;68529;43.286;23.360;2023-07-31T05:44:34;4.53;;;4.22;;
79128;SDS011;68529;43.286;23.360;2023-07-31T05:46:59;4.05;;;3.75;;
79128;SDS011;68529;43.286;23.360;2023-07-31T05:49:25;4.32;;;4.03;;
79128;SDS011;68529;43.286;23.360;2023-07-31T05:51:50;4.72;;;4.10;;
79128;SDS011;68529;43.286;23.360;2023-07-31T05:54:15;4.15;;;3.85;;
79128;SDS011;68529;43.286;23.360;2023-07-31T05:56:41;4.47;;;4.07;;
79128;SDS011;68529;43.286;23.360;2023-07-31T05:59:08;4.15;;;3.85;;
79128;SDS011;68529;43.286;23.360;2023-07-31T06:01:34;4.30;;;3.90;;
79128;SDS011;68529;43.286;23.360;2023-07-31T06:04:00;4.10;;;3.80;;
79128;SDS011;68529;43.286;23.360;2023-07-31T06:06:26;3.92;;;3.63;;
79128;SDS011;68529;43.286;23.360;2023-07-31T06:08:52;4.15;;;3.75;;
79128;SDS011;68529;43.286;23.360;2023-07-31T06:11:17;3.50;;;3.20;;
79128;SDS011;68529;43.286;23.360;2023-07-31T06:13:44;3.50;;;3.20;;
79128;SDS011;68529;43.286;23.360;2023-07-31T06:16:09;3.63;;;3.33;;
79128;SDS011;68529;43.286;23.360;2023-07-31T06:18:35;3.35;;;3.03;;
79128;SDS011;68529;43.286;23.360;2023-07-31T06:21:00;3.17;;;2.97;;
79128;SDS011;68529;43.286;23.360;2023-07-31T06:23:25;3.13;;;2.92;;
79128;SDS011;68529;43.286;23.360;2023-07-31T06:25:51;2.95;;;2.75;;
79128;SDS011;68529;43.286;23.360;2023-07-31T06:28:16;3.03;;;2.83;;
79128;SDS011;68529;43.286;23.360;2023-07-31T06:30:42;2.83;;;2.63;;
79128;SDS011;68529;43.286;23.360;2023-07-31T06:33:07;3.20;;;3.00;;
79128;SDS011;68529;43.286;23.360;2023-07-31T06:35:34;4.30;;;3.90;;
79128;SDS011;68529;43.286;23.360;2023-07-31T06:37:59;5.03;;;4.60;;
79128;SDS011;68529;43.286;23.360;2023-07-31T06:40:24;3.40;;;3.20;;
79128;SDS011;68529;43.286;23.360;2023-07-31T06:42:50;3.70;;;3.10;;
79128;SDS011;68529;43.286;23.360;2023-07-31T06:45:15;3.53;;;3.08;;
79128;SDS011;68529;43.286;23.360;2023-07-31T06:47:40;3.50;;;3.20;;
79128;SDS011;68529;43.286;23.360;2023-07-31T06:50:06;2.85;;;2.65;;
79128;SDS011;68529;43.286;23.360;2023-07-31T06:52:32;2.97;;;2.78;;
79128;SDS011;68529;43.286;23.360;2023-07-31T06:55:15;3.00;;;2.72;;
79128;SDS011;68529;43.286;23.360;2023-07-31T06:57:45;2.90;;;2.70;;
79128;SDS011;68529;43.286;23.360;2023-07-31T07:00:11;2.88;;;2.33;;
79128;SDS011;68529;43.286;23.360;2023-07-31T07:02:37;2.72;;;2.40;;
79128;SDS011;68529;43.286;23.360;2023-07-31T07:05:03;2.60;;;2.40;;
79128;SDS011;68529;43.286;23.360;2023-07-31T07:07:28;2.50;;;2.30;;
79128;SDS011;68529;43.286;23.360;2023-07-31T07:09:54;2.47;;;2.13;;
79128;SDS011;68529;43.286;23.360;2023-07-31T07:12:19;2.13;;;2.00;;
79128;SDS011;68529;43.286;23.360;2023-07-31T07:14:45;2.72;;;2.40;;
79128;SDS011;68529;43.286;23.360;2023-07-31T07:17:13;2.92;;;2.28;;
79128;SDS011;68529;43.286;23.360;2023-07-31T07:19:41;2.65;;;2.45;;
79128;SDS011;68529;43.286;23.360;2023-07-31T07:22:07;2.42;;;2.22;;
79128;SDS011;68529;43.286;23.360;2023-07-31T07:24:33;2.65;;;2.45;;
79128;SDS011;68529;43.286;23.360;2023-07-31T07:26:58;2.78;;;2.58;;
79128;SDS011;68529;43.286;23.360;2023-07-31T07:29:24;2.45;;;2.28;;
79128;SDS011;68529;43.286;23.360;2023-07-31T07:31:49;2.55;;;2.30;;
79128;SDS011;68529;43.286;23.360;2023-07-31T07:34:14;2.45;;;2.30;;
79128;SDS011;68529;43.286;23.360;2023-07-31T07:36:40;1.95;;;1.85;;
79128;SDS011;68529;43.286;23.360;2023-07-31T07:39:05;3.65;;;2.40;;
79128;SDS011;68529;43.286;23.360;2023-07-31T07:41:30;2.35;;;2.17;;
79128;SDS011;68529;43.286;23.360;2023-07-31T07:43:56;2.17;;;2.08;;
79128;SDS011;68529;43.286;23.360;2023-07-31T07:46:22;2.67;;;2.17;;
79128;SDS011;68529;43.286;23.360;2023-07-31T07:48:48;3.00;;;2.35;;
79128;SDS011;68529;43.286;23.360;2023-07-31T07:51:13;2.47;;;2.20;;
79128;SDS011;68529;43.286;23.360;2023-07-31T07:53:38;2.78;;;2.33;;
79128;SDS011;68529;43.286;23.360;2023-07-31T07:56:04;2.17;;;2.08;;
79128;SDS011;68529;43.286;23.360;2023-07-31T07:58:29;2.45;;;2.30;;
79128;SDS011;68529;43.286;23.360;2023-07-31T08:00:54;2.85;;;2.65;;
79128;SDS011;68529;43.286;23.360;2023-07-31T08:03:20;2.72;;;2.53;;
79128;SDS011;68529;43.286;23.360;2023-07-31T08:05:45;2.80;;;2.60;;
79128;SDS011;68529;43.286;23.360;2023-07-31T08:08:14;2.70;;;2.50;;
79128;SDS011;68529;43.286;23.360;2023-07-31T08:10:41;2.75;;;2.10;;
79128;SDS011;68529;43.286;23.360;2023-07-31T08:13:07;2.90;;;2.70;;
79128;SDS011;68529;43.286;23.360;2023-07-31T08:15:32;2.80;;;2.60;;
79128;SDS011;68529;43.286;23.360;2023-07-31T08:17:57;2.70;;;2.50;;
79128;SDS011;68529;43.286;23.360;2023-07-31T08:20:23;2.70;;;2.50;;
79128;SDS011;68529;43.286;23.360;2023-07-31T08:22:48;2.80;;;2.60;;
79128;SDS011;68529;43.286;23.360;2023-07-31T08:25:14;3.35;;;2.70;;
79128;SDS011;68529;43.286;23.360;2023-07-31T08:27:42;2.88;;;2.67;;
79128;SDS011;68529;43.286;23.360;2023-07-31T08:30:08;3.28;;;2.90;;
79128;SDS011;68529;43.286;23.360;2023-07-31T08:32:34;3.15;;;2.95;;
79128;SDS011;68529;43.286;23.360;2023-07-31T08:34:59;3.15;;;2.85;;
79128;SDS011;68529;43.286;23.360;2023-07-31T08:37:25;2.92;;;2.72;;
79128;SDS011;68529;43.286;23.360;2023-07-31T08:39:50;3.72;;;2.88;;
79128;SDS011;68529;43.286;23.360;2023-07-31T08:42:16;3.00;;;2.80;;
79128;SDS011;68529;43.286;23.360;2023-07-31T08:44:41;3.15;;;2.67;;
79128;SDS011;68529;43.286;23.360;2023-07-31T08:47:09;3.10;;;2.90;;
79128;SDS011;68529;43.286;23.360;2023-07-31T08:49:35;2.72;;;2.53;;
79128;SDS011;68529;43.286;23.360;2023-07-31T08:52:03;3.42;;;3.13;;
79128;SDS011;68529;43.286;23.360;2023-07-31T08:54:29;2.65;;;2.45;;
79128;SDS011;68529;43.286;23.360;2023-07-31T08:56:57;2.60;;;2.40;;
79128;SDS011;68529;43.286;23.360;2023-07-31T08:59:25;2.88;;;2.50;;
79128;SDS011;68529;43.286;23.360;2023-07-31T09:01:54;2.33;;;2.13;;
79128;SDS011;68529;43.286;23.360;2023-07-31T09:04:22;2.83;;;2.63;;
79128;SDS011;68529;43.286;23.360;2023-07-31T09:06:49;3.05;;;2.80;;
79128;SDS011;68529;43.286;23.360;2023-07-31T09:09:17;2.30;;;2.13;;
79128;SDS011;68529;43.286;23.360;2023-07-31T09:11:44;2.70;;;2.50;;
79128;SDS011;68529;43.286;23.360;2023-07-31T09:14:09;3.08;;;2.58;;
79128;SDS011;68529;43.286;23.360;2023-07-31T09:16:35;2.45;;;2.25;;
79128;SDS011;68529;43.286;23.360;2023-07-31T09:19:01;2.45;;;2.28;;
79128;SDS011;68529;43.286;23.360;2023-07-31T09:21:30;2.92;;;2.40;;
79128;SDS011;68529;43.286;23.360;2023-07-31T09:23:55;2.90;;;2.58;;
79128;SDS011;68529;43.286;23.360;2023-07-31T09:26:33;2.38;;;2.25;;
79128;SDS011;68529;43.286;23.360;2023-07-31T09:29:01;2.25;;;2.13;;
79128;SDS011;68529;43.286;23.360;2023-07-31T09:31:46;3.15;;;2.50;;
79128;SDS011;68529;43.286;23.360;2023-07-31T09:34:12;3.60;;;2.50;;
79128;SDS011;68529;43.286;23.360;2023-07-31T09:49:48;3.05;;;2.85;;
79128;SDS011;68529;43.286;23.360;2023-07-31T09:52:13;2.50;;;2.30;;
79128;SDS011;68529;43.286;23.360;2023-07-31T09:54:39;2.22;;;2.13;;
79128;SDS011;68529;43.286;23.360;2023-07-31T09:57:04;2.10;;;1.90;;
79128;SDS011;68529;43.286;23.360;2023-07-31T09:59:30;2.70;;;2.30;;
79128;SDS011;68529;43.286;23.360;2023-07-31T10:01:55;2.40;;;2.20;;
79128;SDS011;68529;43.286;23.360;2023-07-31T10:04:21;2.50;;;2.30;;
79128;SDS011;68529;43.286;23.360;2023-07-31T10:06:52;2.80;;;2.38;;
79128;SDS011;68529;43.286;23.360;2023-07-31T10:09:18;1.83;;;1.73;;
79128;SDS011;68529;43.286;23.360;2023-07-31T10:11:47;2.35;;;2.15;;
79128;SDS011;68529;43.286;23.360;2023-07-31T10:14:20;2.45;;;1.67;;
79128;SDS011;68529;43.286;23.360;2023-07-31T10:16:45;2.20;;;2.05;;
79128;SDS011;68529;43.286;23.360;2023-07-31T10:19:11;1.90;;;1.80;;
79128;SDS011;68529;43.286;23.360;2023-07-31T10:21:37;2.15;;;2.03;;
79128;SDS011;68529;43.286;23.360;2023-07-31T10:24:03;1.95;;;1.50;;
79128;SDS011;68529;43.286;23.360;2023-07-31T10:26:29;2.08;;;1.80;;
79128;SDS011;68529;43.286;23.360;2023-07-31T10:28:57;3.08;;;1.98;;
79128;SDS011;68529;43.286;23.360;2023-07-31T10:31:23;2.10;;;2.00;;
79128;SDS011;68529;43.286;23.360;2023-07-31T10:33:50;1.92;;;1.83;;
79128;SDS011;68529;43.286;23.360;2023-07-31T10:36:17;2.30;;;2.10;;
79128;SDS011;68529;43.286;23.360;2023-07-31T10:38:44;3.75;;;2.08;;
79128;SDS011;68529;43.286;23.360;2023-07-31T10:41:10;1.85;;;1.75;;
79128;SDS011;68529;43.286;23.360;2023-07-31T10:43:36;3.80;;;2.05;;
79128;SDS011;68529;43.286;23.360;2023-07-31T10:46:09;1.70;;;1.60;;
79128;SDS011;68529;43.286;23.360;2023-07-31T10:48:37;1.90;;;1.80;;
79128;SDS011;68529;43.286;23.360;2023-07-31T10:51:09;2.67;;;2.05;;
79128;SDS011;68529;43.286;23.360;2023-07-31T10:53:36;1.83;;;1.73;;
79128;SDS011;68529;43.286;23.360;2023-07-31T10:56:03;22.88;;;4.57;;
79128;SDS011;68529;43.286;23.360;2023-07-31T10:58:30;1.88;;;1.77;;
79128;SDS011;68529;43.286;23.360;2023-07-31T11:01:06;1.90;;;1.80;;
79128;SDS011;68529;43.286;23.360;2023-07-31T11:06:10;2.75;;;1.85;;
79128;SDS011;68529;43.286;23.360;2023-07-31T11:08:41;2.97;;;1.95;;
79128;SDS011;68529;43.286;23.360;2023-07-31T11:11:11;4.15;;;1.70;;
79128;SDS011;68529;43.286;23.360;2023-07-31T11:16:17;1.67;;;1.58;;
79128;SDS011;68529;43.286;23.360;2023-07-31T11:18:45;4.20;;;2.40;;
79128;SDS011;68529;43.286;23.360;2023-07-31T11:21:12;2.22;;;2.10;;
79128;SDS011;68529;43.286;23.360;2023-07-31T11:23:39;5.20;;;2.13;;
79128;SDS011;68529;43.286;23.360;2023-07-31T11:26:06;1.70;;;1.60;;
79128;SDS011;68529;43.286;23.360;2023-07-31T11:28:32;1.85;;;1.73;;
79128;SDS011;68529;43.286;23.360;2023-07-31T11:30:59;2.10;;;2.00;;
79128;SDS011;68529;43.286;23.360;2023-07-31T11:33:25;2.20;;;2.10;;
79128;SDS011;68529;43.286;23.360;2023-07-31T11:35:51;2.95;;;2.35;;
79128;SDS011;68529;43.286;23.360;2023-07-31T11:38:24;2.50;;;2.30;;
79128;SDS011;68529;43.286;23.360;2023-07-31T11:40:51;2.60;;;2.40;;
79128;SDS011;68529;43.286;23.360;2023-07-31T11:43:18;2.70;;;2.50;;
79128;SDS011;68529;43.286;23.360;2023-07-31T11:45:48;2.55;;;2.45;;
79128;SDS011;68529;43.286;23.360;2023-07-31T11:48:24;2.80;;;2.55;;
79128;SDS011;68529;43.286;23.360;2023-07-31T11:50:51;2.97;;;2.72;;
79128;SDS011;68529;43.286;23.360;2023-07-31T11:53:23;2.80;;;2.47;;
79128;SDS011;68529;43.286;23.360;2023-07-31T11:55:54;2.88;;;2.65;;
79128;SDS011;68529;43.286;23.360;2023-07-31T11:58:20;2.15;;;2.05;;
79128;SDS011;68529;43.286;23.360;2023-07-31T12:00:48;2.42;;;2.22;;
79128;SDS011;68529;43.286;23.360;2023-07-31T12:03:14;2.83;;;2.60;;
79128;SDS011;68529;43.286;23.360;2023-07-31T12:05:40;2.72;;;2.53;;
79128;SDS011;68529;43.286;23.360;2023-07-31T12:08:09;2.88;;;2.67;;
79128;SDS011;68529;43.286;23.360;2023-07-31T12:10:39;2.80;;;2.38;;
79128;SDS011;68529;43.286;23.360;2023-07-31T12:13:12;2.60;;;2.50;;
79128;SDS011;68529;43.286;23.360;2023-07-31T12:15:48;2.30;;;2.20;;
79128;SDS011;68529;43.286;23.360;2023-07-31T12:18:15;3.40;;;2.58;;
79128;SDS011;68529;43.286;23.360;2023-07-31T12:20:44;2.30;;;2.13;;
79128;SDS011;68529;43.286;23.360;2023-07-31T12:25:40;2.90;;;2.70;;
79128;SDS011;68529;43.286;23.360;2023-07-31T12:28:06;3.03;;;2.78;;
79128;SDS011;68529;43.286;23.360;2023-07-31T12:30:36;6.97;;;2.90;;
79128;SDS011;68529;43.286;23.360;2023-07-31T12:33:23;2.63;;;2.42;;
79128;SDS011;68529;43.286;23.360;2023-07-31T12:35:48;3.22;;;3.03;;
79128;SDS011;68529;43.286;23.360;2023-07-31T12:38:13;2.90;;;2.70;;
79128;SDS011;68529;43.286;23.360;2023-07-31T12:40:39;3.05;;;2.85;;
79128;SDS011;68529;43.286;23.360;2023-07-31T12:43:06;4.22;;;3.00;;
79128;SDS011;68529;43.286;23.360;2023-07-31T12:45:32;16.75;;;3.88;;
79128;SDS011;68529;43.286;23.360;2023-07-31T12:47:58;11.02;;;3.63;;
79128;SDS011;68529;43.286;23.360;2023-07-31T12:50:24;9.77;;;3.90;;
79128;SDS011;68529;43.286;23.360;2023-07-31T12:52:51;6.60;;;3.17;;
79128;SDS011;68529;43.286;23.360;2023-07-31T12:55:17;5.30;;;3.45;;
79128;SDS011;68529;43.286;23.360;2023-07-31T12:57:43;4.00;;;3.60;;
79128;SDS011;68529;43.286;23.360;2023-07-31T13:00:09;3.85;;;3.42;;
79128;SDS011;68529;43.286;23.360;2023-07-31T13:02:35;13.20;;;4.38;;
79128;SDS011;68529;43.286;23.360;2023-07-31T13:05:00;40.58;;;6.38;;
79128;SDS011;68529;43.286;23.360;2023-07-31T13:07:26;49.75;;;7.68;;
79128;SDS011;68529;43.286;23.360;2023-07-31T13:09:51;17.88;;;5.10;;
79128;SDS011;68529;43.286;23.360;2023-07-31T13:12:17;6.65;;;3.65;;
79128;SDS011;68529;43.286;23.360;2023-07-31T13:14:43;6.88;;;3.40;;
79128;SDS011;68529;43.286;23.360;2023-07-31T13:17:08;66.18;;;8.80;;
79128;SDS011;68529;43.286;23.360;2023-07-31T13:19:34;10.80;;;3.83;;
79128;SDS011;68529;43.286;23.360;2023-07-31T13:21:59;82.45;;;9.25;;
79128;SDS011;68529;43.286;23.360;2023-07-31T13:24:25;7.88;;;3.60;;
79128;SDS011;68529;43.286;23.360;2023-07-31T13:26:50;22.98;;;4.38;;
79128;SDS011;68529;43.286;23.360;2023-07-31T13:29:16;5.90;;;2.63;;
79128;SDS011;68529;43.286;23.360;2023-07-31T13:31:41;5.07;;;3.53;;
79128;SDS011;68529;43.286;23.360;2023-07-31T13:34:06;12.45;;;3.50;;
79128;SDS011;68529;43.286;23.360;2023-07-31T13:36:32;15.32;;;4.68;;
79128;SDS011;68529;43.286;23.360;2023-07-31T13:38:59;9.82;;;3.40;;
79128;SDS011;68529;43.286;23.360;2023-07-31T13:41:25;8.90;;;3.63;;
79128;SDS011;68529;43.286;23.360;2023-07-31T13:43:50;5.97;;;3.10;;
79128;SDS011;68529;43.286;23.360;2023-07-31T13:46:15;3.95;;;3.25;;
79128;SDS011;68529;43.286;23.360;2023-07-31T13:48:41;4.60;;;3.10;;
79128;SDS011;68529;43.286;23.360;2023-07-31T13:51:06;2.90;;;2.65;;
79128;SDS011;68529;43.286;23.360;2023-07-31T13:53:32;4.20;;;3.08;;
79128;SDS011;68529;43.286;23.360;2023-07-31T13:55:57;3.58;;;2.60;;
79128;SDS011;68529;43.286;23.360;2023-07-31T13:58:22;2.90;;;2.60;;
79128;SDS011;68529;43.286;23.360;2023-07-31T14:00:48;2.78;;;2.58;;
79128;SDS011;68529;43.286;23.360;2023-07-31T14:03:13;4.47;;;2.55;;
79128;SDS011;68529;43.286;23.360;2023-07-31T14:05:39;2.85;;;2.50;;
79128;SDS011;68529;43.286;23.360;2023-07-31T14:08:04;2.75;;;2.25;;
79128;SDS011;68529;43.286;23.360;2023-07-31T14:10:29;3.33;;;2.50;;
79128;SDS011;68529;43.286;23.360;2023-07-31T14:12:55;2.65;;;2.47;;
79128;SDS011;68529;43.286;23.360;2023-07-31T14:15:20;2.70;;;2.45;;
79128;SDS011;68529;43.286;23.360;2023-07-31T14:17:46;2.70;;;2.50;;
79128;SDS011;68529;43.286;23.360;2023-07-31T14:20:11;5.15;;;2.53;;
79128;SDS011;68529;43.286;23.360;2023-07-31T14:22:37;3.35;;;2.58;;
79128;SDS011;68529;43.286;23.360;2023-07-31T14:25:03;2.55;;;2.42;;
79128;SDS011;68529;43.286;23.360;2023-07-31T14:27:29;2.50;;;2.30;;
79128;SDS011;68529;43.286;23.360;2023-07-31T14:29:55;2.70;;;2.45;;
79128;SDS011;68529;43.286;23.360;2023-07-31T14:32:21;3.05;;;2.83;;
79128;SDS011;68529;43.286;23.360;2023-07-31T14:34:48;3.05;;;2.67;;
79128;SDS011;68529;43.286;23.360;2023-07-31T14:37:14;3.08;;;2.88;;
79128;SDS011;68529;43.286;23.360;2023-07-31T14:39:39;4.30;;;2.80;;
79128;SDS011;68529;43.286;23.360;2023-07-31T14:42:05;3.70;;;2.78;;
79128;SDS011;68529;43.286;23.360;2023-07-31T14:44:30;3.35;;;3.05;;
79128;SDS011;68529;43.286;23.360;2023-07-31T14:46:56;4.53;;;3.00;;
79128;SDS011;68529;43.286;23.360;2023-07-31T14:49:21;4.93;;;3.00;;
79128;SDS011;68529;43.286;23.360;2023-07-31T14:51:47;3.20;;;2.90;;
79128;SDS011;68529;43.286;23.360;2023-07-31T14:54:12;5.32;;;2.80;;
79128;SDS011;68529;43.286;23.360;2023-07-31T14:56:37;2.95;;;2.72;;